createdAt,value
2023-05-19T00:03:11.730Z,10.75
2023-05-19T00:07:18.255Z,10.53
2023-05-19T00:11:20.291Z,10.46
2023-05-19T00:15:22.585Z,10.37
2023-05-19T00:19:27.584Z,10.40
2023-05-19T00:23:30.635Z,10.33
2023-05-19T00:27:32.180Z,10.30
2023-05-19T00:31:33.886Z,10.28
2023-05-19T00:35:35.552Z,10.28
2023-05-19T00:39:38.454Z,10.21
2023-05-19T00:43:40.060Z,10.06
2023-05-19T00:47:41.669Z,10.05
2023-05-19T00:51:43.279Z,9.86
2023-05-19T00:55:47.647Z,9.86
2023-05-19T00:59:49.243Z,9.85
2023-05-19T01:03:50.992Z,9.85
2023-05-19T01:07:52.671Z,9.86
2023-05-19T01:11:55.596Z,9.85
2023-05-19T01:16:05.523Z,9.81
2023-05-19T01:20:14.935Z,9.80
2023-05-19T01:24:41.370Z,9.76
2023-05-19T01:29:07.576Z,9.81
2023-05-19T01:33:13.473Z,9.75
2023-05-19T01:37:16.121Z,9.71
2023-05-19T01:41:18.884Z,9.70
2023-05-19T01:45:21.292Z,9.68
2023-05-19T01:49:24.161Z,9.59
2023-05-19T01:53:26.032Z,9.47
2023-05-19T01:57:33.622Z,9.39
2023-05-19T02:01:48.429Z,9.36
2023-05-19T02:05:59.241Z,9.23
2023-05-19T02:10:05.715Z,9.15
2023-05-19T02:14:21.267Z,9.13
2023-05-19T02:18:23.441Z,9.05
2023-05-19T02:22:26.343Z,9.03
2023-05-19T02:26:28.145Z,9.00
2023-05-19T02:30:29.988Z,8.94
2023-05-19T02:34:31.635Z,8.96
2023-05-19T02:38:34.525Z,8.87
2023-05-19T02:42:36.057Z,8.84
2023-05-19T02:46:37.703Z,8.87
2023-05-19T02:50:39.297Z,8.85
2023-05-19T02:54:42.305Z,8.93
2023-05-19T02:58:44.069Z,8.80
2023-05-19T03:02:45.736Z,8.80
2023-05-19T03:06:47.327Z,8.92
2023-05-19T03:10:50.196Z,8.92
2023-05-19T03:14:51.799Z,8.96
2023-05-19T03:18:53.369Z,9.06
2023-05-19T03:22:54.912Z,9.15
2023-05-19T03:26:57.790Z,9.23
2023-05-19T03:30:59.350Z,9.27
2023-05-19T03:35:00.880Z,9.33
2023-05-19T03:39:02.406Z,9.33
2023-05-19T03:43:05.306Z,9.42
2023-05-19T03:47:07.118Z,9.42
2023-05-19T03:51:14.515Z,9.37
2023-05-19T03:55:16.052Z,9.35
2023-05-19T03:59:18.938Z,9.33
2023-05-19T04:03:20.626Z,9.34
2023-05-19T04:07:22.372Z,9.33
2023-05-19T04:11:23.903Z,9.38
2023-05-19T04:15:26.805Z,9.42
2023-05-19T04:19:28.383Z,9.56
2023-05-19T04:23:29.959Z,9.53
2023-05-19T04:27:31.481Z,9.51
2023-05-19T04:31:34.619Z,9.62
2023-05-19T04:35:36.096Z,9.61
2023-05-19T04:39:37.622Z,9.65
2023-05-19T04:43:39.207Z,9.76
2023-05-19T04:47:42.245Z,9.89
2023-05-19T04:51:43.701Z,10.01
2023-05-19T04:55:45.229Z,9.89
2023-05-19T04:59:46.766Z,9.97
2023-05-19T05:03:49.683Z,10.00
2023-05-19T05:07:51.303Z,10.07
2023-05-19T05:11:53.566Z,10.06
2023-05-19T05:15:55.671Z,10.11
2023-05-19T05:19:59.313Z,10.21
2023-05-19T05:24:01.444Z,10.39
2023-05-19T05:28:03.014Z,10.75
2023-05-19T05:32:05.266Z,11.12
2023-05-19T05:36:08.915Z,10.72
2023-05-19T05:40:11.385Z,10.88
2023-05-19T05:44:12.999Z,10.55
2023-05-19T05:48:15.342Z,10.77
2023-05-19T05:52:20.996Z,10.99
2023-05-19T05:56:23.080Z,11.24
2023-05-19T06:00:24.632Z,11.54
2023-05-19T06:04:26.166Z,11.23
2023-05-19T06:08:29.160Z,11.81
2023-05-19T06:12:30.758Z,12.72
2023-05-19T06:16:32.399Z,12.21
2023-05-19T06:20:34.176Z,11.85
2023-05-19T06:24:39.372Z,11.70
2023-05-19T06:28:41.148Z,11.90
2023-05-19T06:32:44.546Z,12.38
2023-05-19T06:36:46.121Z,12.55
2023-05-19T06:40:49.006Z,13.11
2023-05-19T06:44:50.983Z,13.55
2023-05-19T06:48:52.504Z,14.09
2023-05-19T06:52:54.291Z,14.60
2023-05-19T06:56:57.166Z,14.74
2023-05-19T07:00:58.688Z,14.09
2023-05-19T07:05:00.396Z,13.91
2023-05-19T07:09:01.923Z,14.49
2023-05-19T07:13:05.064Z,15.59
2023-05-19T07:17:06.594Z,17.22
2023-05-19T07:21:08.149Z,15.86
2023-05-19T07:25:10.204Z,16.85
2023-05-19T07:29:13.085Z,15.97
2023-05-19T07:33:14.659Z,16.92
2023-05-19T07:37:16.312Z,17.37
2023-05-19T07:41:17.828Z,16.40
2023-05-19T07:45:20.780Z,15.92
2023-05-19T07:49:22.351Z,17.57
2023-05-19T07:53:23.956Z,15.66
2023-05-19T07:57:25.518Z,17.50
2023-05-19T08:01:29.649Z,16.70
2023-05-19T08:05:31.181Z,17.04
2023-05-19T08:09:32.786Z,18.85
2023-05-19T08:13:34.424Z,18.71
2023-05-19T08:17:37.391Z,18.20
2023-05-19T08:21:38.812Z,18.40
2023-05-19T08:25:40.325Z,20.13
2023-05-19T08:29:41.931Z,20.35
2023-05-19T08:33:45.073Z,18.66
2023-05-19T08:37:46.621Z,20.49
2023-05-19T08:41:48.214Z,20.44
2023-05-19T08:45:50.139Z,19.23
2023-05-19T08:49:56.025Z,17.27
2023-05-19T08:54:04.490Z,19.48
2023-05-19T08:58:06.318Z,18.92
2023-05-19T09:02:10.617Z,18.82
2023-05-19T09:06:13.498Z,19.38
2023-05-19T09:10:14.892Z,18.74
2023-05-19T09:14:16.417Z,17.95
2023-05-19T09:18:17.993Z,17.53
2023-05-19T09:22:21.012Z,18.42
2023-05-19T09:26:22.537Z,18.88
2023-05-19T09:30:24.286Z,17.72
2023-05-19T09:34:26.169Z,18.31
2023-05-19T09:38:29.635Z,16.89
2023-05-19T09:42:37.646Z,17.47
2023-05-19T09:46:47.477Z,18.85
2023-05-19T09:50:49.364Z,18.77
2023-05-19T09:54:53.117Z,18.60
2023-05-19T09:58:54.726Z,17.86
2023-05-19T10:02:56.851Z,18.50
2023-05-19T10:06:59.188Z,18.64
2023-05-19T10:11:03.080Z,18.77
2023-05-19T10:15:05.970Z,18.55
2023-05-19T10:19:07.880Z,17.91
2023-05-19T10:23:09.735Z,18.48
2023-05-19T10:27:14.859Z,18.46
2023-05-19T10:31:21.503Z,18.03
2023-05-19T10:35:37.029Z,18.04
2023-05-19T10:39:43.156Z,17.42
2023-05-19T10:43:59.703Z,17.68
2023-05-19T10:48:01.403Z,18.62
2023-05-19T10:52:03.430Z,18.49
2023-05-19T10:56:05.558Z,18.97
2023-05-19T11:00:27.742Z,18.84
2023-05-19T11:04:40.027Z,17.75
2023-05-19T11:08:41.624Z,17.82
2023-05-19T11:12:45.538Z,17.29
2023-05-19T11:16:51.321Z,17.19
2023-05-19T11:20:56.161Z,18.16
2023-05-19T11:24:57.999Z,17.65
2023-05-19T11:29:00.290Z,18.18
2023-05-19T11:33:03.725Z,18.68
2023-05-19T11:37:06.340Z,18.74
2023-05-19T11:41:07.887Z,17.53
2023-05-19T11:45:10.270Z,17.30
2023-05-19T11:49:14.884Z,17.95
2023-05-19T11:53:18.116Z,18.24
2023-05-19T11:57:20.238Z,18.15
2023-05-19T12:01:23.826Z,18.11
2023-05-19T12:05:27.259Z,17.98
2023-05-19T12:09:28.857Z,17.87
2023-05-19T12:13:30.436Z,17.80
2023-05-19T12:17:32.731Z,18.41
2023-05-19T12:21:36.167Z,18.51
2023-05-19T12:25:37.943Z,17.99
2023-05-19T12:29:40.336Z,17.72
2023-05-19T12:33:42.027Z,18.47
2023-05-19T12:37:44.956Z,18.66
2023-05-19T12:41:46.351Z,18.54
2023-05-19T12:45:48.095Z,19.32
2023-05-19T12:49:56.750Z,19.21
2023-05-19T12:54:02.495Z,18.60
2023-05-19T12:58:06.992Z,19.16
2023-05-19T13:02:08.861Z,19.28
2023-05-19T13:06:10.744Z,19.28
2023-05-19T13:10:13.645Z,18.05
2023-05-19T13:14:15.053Z,18.75
2023-05-19T13:18:17.533Z,18.55
2023-05-19T13:22:19.156Z,18.29
2023-05-19T13:26:22.037Z,18.04
2023-05-19T13:30:23.436Z,18.49
2023-05-19T13:34:24.984Z,18.58
2023-05-19T13:38:26.572Z,19.00
2023-05-19T13:42:29.482Z,18.83
2023-05-19T13:46:44.198Z,18.53
2023-05-19T13:50:47.424Z,19.28
2023-05-19T13:54:49.484Z,18.47
2023-05-19T13:58:52.393Z,18.55
2023-05-19T14:02:53.867Z,18.42
2023-05-19T14:06:55.603Z,18.52
2023-05-19T14:10:57.186Z,18.85
2023-05-19T14:15:00.924Z,19.13
2023-05-19T14:19:02.481Z,18.83
2023-05-19T14:23:04.086Z,18.49
2023-05-19T14:27:06.066Z,18.76
2023-05-19T14:31:12.468Z,19.30
2023-05-19T14:35:14.173Z,18.60
2023-05-19T14:39:15.797Z,19.14
2023-05-19T14:43:17.355Z,18.85
2023-05-19T14:47:20.284Z,18.78
2023-05-19T14:51:21.727Z,18.97
2023-05-19T14:55:23.325Z,19.75
2023-05-19T14:59:25.007Z,20.05
2023-05-19T15:03:27.935Z,18.85
2023-05-19T15:07:29.368Z,18.62
2023-05-19T15:11:30.955Z,18.82
2023-05-19T15:15:32.542Z,18.34
2023-05-19T15:19:35.598Z,19.00
2023-05-19T15:23:37.037Z,18.41
2023-05-19T15:27:38.627Z,18.30
2023-05-19T15:31:40.289Z,18.24
2023-05-19T15:35:43.315Z,18.47
2023-05-19T15:39:45.964Z,18.54
2023-05-19T15:43:47.495Z,18.34
2023-05-19T15:47:49.120Z,18.31
2023-05-19T15:51:52.040Z,18.43
2023-05-19T15:55:53.428Z,18.27
2023-05-19T15:59:54.984Z,18.04
2023-05-19T16:03:56.898Z,18.38
2023-05-19T16:07:59.871Z,18.45
2023-05-19T16:12:01.251Z,18.65
2023-05-19T16:16:02.949Z,18.00
2023-05-19T16:20:05.735Z,18.66
2023-05-19T16:24:08.660Z,18.25
2023-05-19T16:28:10.048Z,17.48
2023-05-19T16:32:11.742Z,17.04
2023-05-19T16:36:13.400Z,16.94
2023-05-19T16:40:16.606Z,17.30
2023-05-19T16:44:18.193Z,17.07
2023-05-19T16:48:19.805Z,17.12
2023-05-19T16:52:21.419Z,17.25
2023-05-19T16:56:24.339Z,16.95
2023-05-19T17:00:25.934Z,16.51
2023-05-19T17:04:29.451Z,16.59
2023-05-19T17:08:32.282Z,16.72
2023-05-19T17:12:35.206Z,16.71
2023-05-19T17:16:37.036Z,16.28
2023-05-19T17:20:38.624Z,16.48
2023-05-19T17:24:40.214Z,16.27
2023-05-19T17:28:43.119Z,15.92
2023-05-19T17:32:44.789Z,15.92
2023-05-19T17:36:46.457Z,15.63
2023-05-19T17:40:48.007Z,15.72
2023-05-19T17:44:50.898Z,15.52
2023-05-19T17:48:52.456Z,15.49
2023-05-19T17:52:54.522Z,15.44
2023-05-19T17:56:58.512Z,15.35
2023-05-19T18:01:01.780Z,15.25
2023-05-19T18:05:04.310Z,15.18
2023-05-19T18:09:06.850Z,15.16
2023-05-19T18:13:10.298Z,15.14
2023-05-19T18:17:13.275Z,15.17
2023-05-19T18:21:14.834Z,15.01
2023-05-19T18:25:16.599Z,14.98
2023-05-19T18:29:18.142Z,14.97
2023-05-19T18:33:22.266Z,14.84
2023-05-19T18:37:26.694Z,14.93
2023-05-19T18:41:28.404Z,14.78
2023-05-19T18:45:29.959Z,14.70
2023-05-19T18:49:33.023Z,14.65
2023-05-19T18:53:34.441Z,14.67
2023-05-19T18:57:35.992Z,14.68
2023-05-19T19:01:37.684Z,14.53
2023-05-19T19:05:40.736Z,14.52
2023-05-19T19:09:42.257Z,14.54
2023-05-19T19:13:43.799Z,14.46
2023-05-19T19:17:45.359Z,14.37
2023-05-19T19:21:48.257Z,14.33
2023-05-19T19:25:50.078Z,14.35
2023-05-19T19:29:51.665Z,14.31
2023-05-19T19:33:53.206Z,14.21
2023-05-19T19:37:56.106Z,14.17
2023-05-19T19:41:57.689Z,14.08
2023-05-19T19:45:59.661Z,14.08
2023-05-19T19:50:01.196Z,13.98
2023-05-19T19:54:04.331Z,13.98
2023-05-19T19:58:05.704Z,14.03
2023-05-19T20:02:07.240Z,13.98
2023-05-19T20:06:08.842Z,13.96
2023-05-19T20:10:12.079Z,13.92
2023-05-19T20:14:13.603Z,13.93
2023-05-19T20:18:15.312Z,14.00
2023-05-19T20:22:16.996Z,14.01
2023-05-19T20:26:19.863Z,14.11
2023-05-19T20:30:21.488Z,14.04
2023-05-19T20:34:23.039Z,14.11
2023-05-19T20:38:24.631Z,14.07
2023-05-19T20:42:27.536Z,14.04
2023-05-19T20:46:29.170Z,14.02
2023-05-19T20:50:30.836Z,14.03
2023-05-19T20:54:32.514Z,13.97
2023-05-19T20:58:35.411Z,13.90
2023-05-19T21:02:37.095Z,13.88
2023-05-19T21:06:38.693Z,13.75
2023-05-19T21:10:40.276Z,13.71
2023-05-19T21:14:43.148Z,13.70
2023-05-19T21:18:44.718Z,13.57
2023-05-19T21:22:46.320Z,13.53
2023-05-19T21:26:47.846Z,13.52
2023-05-19T21:30:50.750Z,13.48
2023-05-19T21:34:52.285Z,13.46
2023-05-19T21:38:53.838Z,13.45
2023-05-19T21:42:55.352Z,13.41
2023-05-19T21:46:58.387Z,13.46
2023-05-19T21:50:59.955Z,13.46
2023-05-19T21:55:01.470Z,13.47
2023-05-19T21:59:03.266Z,13.52
2023-05-19T22:03:06.170Z,13.55
2023-05-19T22:07:07.732Z,13.57
2023-05-19T22:11:09.274Z,13.56
2023-05-19T22:15:11.707Z,13.56
2023-05-19T22:19:14.684Z,13.66
2023-05-19T22:23:16.249Z,13.65
2023-05-19T22:27:18.343Z,13.72
2023-05-19T22:31:19.867Z,13.72
2023-05-19T22:35:22.924Z,13.69
2023-05-19T22:39:24.283Z,13.68
2023-05-19T22:43:25.793Z,13.67
2023-05-19T22:47:27.427Z,13.67
2023-05-19T22:51:30.287Z,13.67
2023-05-19T22:55:32.023Z,13.63
2023-05-19T22:59:33.704Z,13.66
2023-05-19T23:03:35.221Z,13.61
2023-05-19T23:07:38.095Z,13.56
2023-05-19T23:11:39.588Z,13.58
2023-05-19T23:15:41.096Z,13.59
2023-05-19T23:19:42.597Z,13.59
2023-05-19T23:23:45.516Z,13.58
2023-05-19T23:27:47.073Z,13.56
2023-05-19T23:31:48.800Z,13.56
2023-05-19T23:35:50.718Z,13.54
2023-05-19T23:39:53.545Z,13.54
2023-05-19T23:43:55.429Z,13.39
2023-05-19T23:47:57.072Z,13.41
2023-05-19T23:51:58.576Z,13.21
2023-05-19T23:56:01.818Z,13.17
